sensor_id;sensor_type;location;lat;lon;timestamp;temperature;humidity
12872;DHT22;6504;53.766;9.626;2024-03-22T00:00:49;8.50;99.90
12872;DHT22;6504;53.766;9.626;2024-03-22T00:03:16;8.50;99.90
12872;DHT22;6504;53.766;9.626;2024-03-22T00:05:42;8.40;99.90
12872;DHT22;6504;53.766;9.626;2024-03-22T00:08:10;8.50;99.90
12872;DHT22;6504;53.766;9.626;2024-03-22T00:10:36;8.50;99.90
12872;DHT22;6504;53.766;9.626;2024-03-22T00:13:03;8.50;99.90
12872;DHT22;6504;53.766;9.626;2024-03-22T00:15:30;8.50;99.90
12872;DHT22;6504;53.766;9.626;2024-03-22T00:17:57;8.50;99.90
12872;DHT22;6504;53.766;9.626;2024-03-22T00:20:23;8.50;99.90
12872;DHT22;6504;53.766;9.626;2024-03-22T00:22:50;8.50;99.90
12872;DHT22;6504;53.766;9.626;2024-03-22T00:25:17;8.50;99.90
12872;DHT22;6504;53.766;9.626;2024-03-22T00:27:44;8.50;99.90
12872;DHT22;6504;53.766;9.626;2024-03-22T00:30:10;8.50;99.90
12872;DHT22;6504;53.766;9.626;2024-03-22T00:32:37;8.50;99.90
12872;DHT22;6504;53.766;9.626;2024-03-22T00:35:04;8.50;99.90
12872;DHT22;6504;53.766;9.626;2024-03-22T00:37:31;8.50;99.90
12872;DHT22;6504;53.766;9.626;2024-03-22T00:39:57;8.50;99.90
12872;DHT22;6504;53.766;9.626;2024-03-22T00:42:25;8.50;99.90
12872;DHT22;6504;53.766;9.626;2024-03-22T00:44:51;8.50;99.90
12872;DHT22;6504;53.766;9.626;2024-03-22T00:47:19;8.50;99.90
12872;DHT22;6504;53.766;9.626;2024-03-22T00:49:45;8.50;99.90
12872;DHT22;6504;53.766;9.626;2024-03-22T00:52:12;8.50;99.90
12872;DHT22;6504;53.766;9.626;2024-03-22T00:54:38;8.50;99.90
12872;DHT22;6504;53.766;9.626;2024-03-22T00:57:06;8.50;99.90
12872;DHT22;6504;53.766;9.626;2024-03-22T00:59:34;8.50;99.90
12872;DHT22;6504;53.766;9.626;2024-03-22T01:02:01;8.50;99.90
12872;DHT22;6504;53.766;9.626;2024-03-22T01:04:27;8.50;99.90
12872;DHT22;6504;53.766;9.626;2024-03-22T01:06:54;8.50;99.90
12872;DHT22;6504;53.766;9.626;2024-03-22T01:09:20;8.50;99.90
12872;DHT22;6504;53.766;9.626;2024-03-22T01:11:47;8.50;99.90
12872;DHT22;6504;53.766;9.626;2024-03-22T01:14:13;8.50;99.90
12872;DHT22;6504;53.766;9.626;2024-03-22T01:16:41;8.50;99.90
12872;DHT22;6504;53.766;9.626;2024-03-22T01:19:08;8.50;99.90
12872;DHT22;6504;53.766;9.626;2024-03-22T01:21:35;8.50;99.90
12872;DHT22;6504;53.766;9.626;2024-03-22T01:24:01;8.50;99.90
12872;DHT22;6504;53.766;9.626;2024-03-22T01:26:28;8.50;99.90
12872;DHT22;6504;53.766;9.626;2024-03-22T01:28:54;8.50;99.90
12872;DHT22;6504;53.766;9.626;2024-03-22T01:31:21;8.50;99.90
12872;DHT22;6504;53.766;9.626;2024-03-22T01:33:49;8.50;99.90
12872;DHT22;6504;53.766;9.626;2024-03-22T01:36:16;8.50;99.90
12872;DHT22;6504;53.766;9.626;2024-03-22T01:38:43;8.60;99.90
12872;DHT22;6504;53.766;9.626;2024-03-22T01:41:10;8.60;99.90
12872;DHT22;6504;53.766;9.626;2024-03-22T01:43:36;8.60;99.90
12872;DHT22;6504;53.766;9.626;2024-03-22T01:46:03;8.60;99.90
12872;DHT22;6504;53.766;9.626;2024-03-22T01:48:30;8.60;99.90
12872;DHT22;6504;53.766;9.626;2024-03-22T01:50:59;8.60;99.90
12872;DHT22;6504;53.766;9.626;2024-03-22T01:53:26;8.60;99.90
12872;DHT22;6504;53.766;9.626;2024-03-22T01:55:53;8.60;99.90
12872;DHT22;6504;53.766;9.626;2024-03-22T01:58:19;8.60;99.90
12872;DHT22;6504;53.766;9.626;2024-03-22T02:00:47;8.60;99.90
12872;DHT22;6504;53.766;9.626;2024-03-22T02:03:13;8.60;99.90
12872;DHT22;6504;53.766;9.626;2024-03-22T02:05:40;8.60;99.90
12872;DHT22;6504;53.766;9.626;2024-03-22T02:08:08;8.60;99.90
12872;DHT22;6504;53.766;9.626;2024-03-22T02:10:35;8.70;99.90
12872;DHT22;6504;53.766;9.626;2024-03-22T02:13:01;8.70;99.90
12872;DHT22;6504;53.766;9.626;2024-03-22T02:15:28;8.70;99.90
12872;DHT22;6504;53.766;9.626;2024-03-22T02:17:54;8.70;99.90
12872;DHT22;6504;53.766;9.626;2024-03-22T02:20:21;8.70;99.90
12872;DHT22;6504;53.766;9.626;2024-03-22T02:22:47;8.70;99.90
12872;DHT22;6504;53.766;9.626;2024-03-22T02:25:16;8.70;99.90
12872;DHT22;6504;53.766;9.626;2024-03-22T02:27:44;8.70;99.90
12872;DHT22;6504;53.766;9.626;2024-03-22T02:30:16;8.70;99.90
12872;DHT22;6504;53.766;9.626;2024-03-22T02:32:42;8.70;99.90
12872;DHT22;6504;53.766;9.626;2024-03-22T02:35:10;8.70;99.90
12872;DHT22;6504;53.766;9.626;2024-03-22T02:37:37;8.70;99.90
12872;DHT22;6504;53.766;9.626;2024-03-22T02:40:04;8.70;99.90
12872;DHT22;6504;53.766;9.626;2024-03-22T02:42:33;8.70;99.90
12872;DHT22;6504;53.766;9.626;2024-03-22T02:44:59;8.70;99.90
12872;DHT22;6504;53.766;9.626;2024-03-22T02:47:26;8.70;99.90
12872;DHT22;6504;53.766;9.626;2024-03-22T02:49:52;8.70;99.90
12872;DHT22;6504;53.766;9.626;2024-03-22T02:52:19;8.70;99.90
12872;DHT22;6504;53.766;9.626;2024-03-22T02:54:45;8.70;99.90
12872;DHT22;6504;53.766;9.626;2024-03-22T02:57:12;8.70;99.90
12872;DHT22;6504;53.766;9.626;2024-03-22T02:59:39;8.70;99.90
12872;DHT22;6504;53.766;9.626;2024-03-22T03:02:06;8.70;99.90
12872;DHT22;6504;53.766;9.626;2024-03-22T03:04:32;8.70;99.90
12872;DHT22;6504;53.766;9.626;2024-03-22T03:07:00;8.70;99.90
12872;DHT22;6504;53.766;9.626;2024-03-22T03:09:26;8.70;99.90
12872;DHT22;6504;53.766;9.626;2024-03-22T03:11:53;8.80;99.90
12872;DHT22;6504;53.766;9.626;2024-03-22T03:14:19;8.80;99.90
12872;DHT22;6504;53.766;9.626;2024-03-22T03:16:47;8.70;99.90
12872;DHT22;6504;53.766;9.626;2024-03-22T03:19:13;8.80;99.90
12872;DHT22;6504;53.766;9.626;2024-03-22T03:21:41;8.80;99.90
12872;DHT22;6504;53.766;9.626;2024-03-22T03:24:07;8.80;99.90
12872;DHT22;6504;53.766;9.626;2024-03-22T03:26:35;8.80;99.90
12872;DHT22;6504;53.766;9.626;2024-03-22T03:29:01;8.80;99.90
12872;DHT22;6504;53.766;9.626;2024-03-22T03:31:28;8.80;99.90
12872;DHT22;6504;53.766;9.626;2024-03-22T03:33:55;8.80;99.90
12872;DHT22;6504;53.766;9.626;2024-03-22T03:36:22;8.80;99.90
12872;DHT22;6504;53.766;9.626;2024-03-22T03:38:48;8.80;99.90
12872;DHT22;6504;53.766;9.626;2024-03-22T03:41:15;8.80;99.90
12872;DHT22;6504;53.766;9.626;2024-03-22T03:43:42;8.80;99.90
12872;DHT22;6504;53.766;9.626;2024-03-22T03:46:09;8.80;99.90
12872;DHT22;6504;53.766;9.626;2024-03-22T03:48:35;8.80;99.90
12872;DHT22;6504;53.766;9.626;2024-03-22T03:51:04;8.80;99.90
12872;DHT22;6504;53.766;9.626;2024-03-22T03:53:31;8.80;99.90
12872;DHT22;6504;53.766;9.626;2024-03-22T03:55:58;8.90;99.90
12872;DHT22;6504;53.766;9.626;2024-03-22T03:58:25;8.90;99.90
12872;DHT22;6504;53.766;9.626;2024-03-22T04:00:52;8.90;99.90
12872;DHT22;6504;53.766;9.626;2024-03-22T04:03:18;8.90;99.90
12872;DHT22;6504;53.766;9.626;2024-03-22T04:05:45;8.90;99.90
12872;DHT22;6504;53.766;9.626;2024-03-22T04:08:13;8.90;99.90
12872;DHT22;6504;53.766;9.626;2024-03-22T04:10:40;8.90;99.90
12872;DHT22;6504;53.766;9.626;2024-03-22T04:13:06;8.90;99.90
12872;DHT22;6504;53.766;9.626;2024-03-22T04:15:34;8.90;99.90
12872;DHT22;6504;53.766;9.626;2024-03-22T04:18:00;8.90;99.90
12872;DHT22;6504;53.766;9.626;2024-03-22T04:20:27;8.90;99.90
12872;DHT22;6504;53.766;9.626;2024-03-22T04:22:54;8.90;99.90
12872;DHT22;6504;53.766;9.626;2024-03-22T04:25:22;8.90;99.90
12872;DHT22;6504;53.766;9.626;2024-03-22T04:27:48;8.90;99.90
12872;DHT22;6504;53.766;9.626;2024-03-22T04:30:15;8.90;99.90
12872;DHT22;6504;53.766;9.626;2024-03-22T04:32:41;8.90;99.90
12872;DHT22;6504;53.766;9.626;2024-03-22T04:35:09;9.00;99.90
12872;DHT22;6504;53.766;9.626;2024-03-22T04:37:35;8.90;99.90
12872;DHT22;6504;53.766;9.626;2024-03-22T04:40:02;9.00;99.90
12872;DHT22;6504;53.766;9.626;2024-03-22T04:42:31;9.00;99.90
12872;DHT22;6504;53.766;9.626;2024-03-22T04:44:58;9.00;99.90
12872;DHT22;6504;53.766;9.626;2024-03-22T04:47:24;9.00;99.90
12872;DHT22;6504;53.766;9.626;2024-03-22T04:49:53;9.00;99.90
12872;DHT22;6504;53.766;9.626;2024-03-22T04:52:19;9.00;99.90
12872;DHT22;6504;53.766;9.626;2024-03-22T04:54:46;9.00;99.90
12872;DHT22;6504;53.766;9.626;2024-03-22T04:57:13;9.00;99.90
12872;DHT22;6504;53.766;9.626;2024-03-22T04:59:41;9.00;99.90
12872;DHT22;6504;53.766;9.626;2024-03-22T05:02:07;9.00;99.90
12872;DHT22;6504;53.766;9.626;2024-03-22T05:04:34;9.00;99.90
12872;DHT22;6504;53.766;9.626;2024-03-22T05:07:00;9.10;99.90
12872;DHT22;6504;53.766;9.626;2024-03-22T05:09:29;9.00;99.90
12872;DHT22;6504;53.766;9.626;2024-03-22T05:11:57;9.10;99.90
12872;DHT22;6504;53.766;9.626;2024-03-22T05:14:24;9.10;99.90
12872;DHT22;6504;53.766;9.626;2024-03-22T05:16:52;9.10;99.90
12872;DHT22;6504;53.766;9.626;2024-03-22T05:19:19;9.10;99.90
12872;DHT22;6504;53.766;9.626;2024-03-22T05:21:46;9.10;99.90
12872;DHT22;6504;53.766;9.626;2024-03-22T05:24:13;9.10;99.90
12872;DHT22;6504;53.766;9.626;2024-03-22T05:26:39;9.10;99.90
12872;DHT22;6504;53.766;9.626;2024-03-22T05:29:06;9.10;99.90
12872;DHT22;6504;53.766;9.626;2024-03-22T05:31:45;9.10;99.90
12872;DHT22;6504;53.766;9.626;2024-03-22T05:34:14;9.10;99.90
12872;DHT22;6504;53.766;9.626;2024-03-22T05:36:40;9.10;99.90
12872;DHT22;6504;53.766;9.626;2024-03-22T05:39:07;9.20;99.90
12872;DHT22;6504;53.766;9.626;2024-03-22T05:41:33;9.20;99.90
12872;DHT22;6504;53.766;9.626;2024-03-22T05:44:00;9.20;99.90
12872;DHT22;6504;53.766;9.626;2024-03-22T05:46:26;9.20;99.90
12872;DHT22;6504;53.766;9.626;2024-03-22T05:48:53;9.20;99.90
12872;DHT22;6504;53.766;9.626;2024-03-22T05:51:21;9.20;99.90
12872;DHT22;6504;53.766;9.626;2024-03-22T05:53:48;9.20;99.90
12872;DHT22;6504;53.766;9.626;2024-03-22T05:56:14;9.20;99.90
12872;DHT22;6504;53.766;9.626;2024-03-22T05:58:41;9.20;99.90
12872;DHT22;6504;53.766;9.626;2024-03-22T06:01:07;9.20;99.90
12872;DHT22;6504;53.766;9.626;2024-03-22T06:03:34;9.20;99.90
12872;DHT22;6504;53.766;9.626;2024-03-22T06:06:01;9.20;99.90
12872;DHT22;6504;53.766;9.626;2024-03-22T06:08:30;9.30;99.90
12872;DHT22;6504;53.766;9.626;2024-03-22T06:10:57;9.30;99.90
12872;DHT22;6504;53.766;9.626;2024-03-22T06:13:24;9.30;99.90
12872;DHT22;6504;53.766;9.626;2024-03-22T06:15:50;9.30;99.90
12872;DHT22;6504;53.766;9.626;2024-03-22T06:18:17;9.30;99.90
12872;DHT22;6504;53.766;9.626;2024-03-22T06:20:43;9.30;99.90
12872;DHT22;6504;53.766;9.626;2024-03-22T06:23:10;9.30;99.90
12872;DHT22;6504;53.766;9.626;2024-03-22T06:25:38;9.30;99.90
12872;DHT22;6504;53.766;9.626;2024-03-22T06:28:06;9.30;99.90
12872;DHT22;6504;53.766;9.626;2024-03-22T06:30:32;9.40;99.90
12872;DHT22;6504;53.766;9.626;2024-03-22T06:33:00;9.40;99.90
12872;DHT22;6504;53.766;9.626;2024-03-22T06:35:26;9.40;99.90
12872;DHT22;6504;53.766;9.626;2024-03-22T06:37:53;9.40;99.90
12872;DHT22;6504;53.766;9.626;2024-03-22T06:40:20;9.40;99.90
12872;DHT22;6504;53.766;9.626;2024-03-22T06:42:47;9.50;99.90
12872;DHT22;6504;53.766;9.626;2024-03-22T06:45:14;9.50;99.90
12872;DHT22;6504;53.766;9.626;2024-03-22T06:47:41;9.50;99.90
12872;DHT22;6504;53.766;9.626;2024-03-22T06:50:09;9.50;99.90
12872;DHT22;6504;53.766;9.626;2024-03-22T06:52:35;9.50;99.90
12872;DHT22;6504;53.766;9.626;2024-03-22T06:55:02;9.60;99.90
12872;DHT22;6504;53.766;9.626;2024-03-22T06:57:29;9.60;99.90
12872;DHT22;6504;53.766;9.626;2024-03-22T06:59:57;9.60;99.90
12872;DHT22;6504;53.766;9.626;2024-03-22T07:02:23;9.60;99.90
12872;DHT22;6504;53.766;9.626;2024-03-22T07:04:50;9.60;99.90
12872;DHT22;6504;53.766;9.626;2024-03-22T07:07:17;9.60;99.90
12872;DHT22;6504;53.766;9.626;2024-03-22T07:09:44;9.70;99.90
12872;DHT22;6504;53.766;9.626;2024-03-22T07:12:13;9.70;99.90
12872;DHT22;6504;53.766;9.626;2024-03-22T07:14:40;9.70;99.90
12872;DHT22;6504;53.766;9.626;2024-03-22T07:17:08;9.80;99.90
12872;DHT22;6504;53.766;9.626;2024-03-22T07:19:35;9.80;99.90
12872;DHT22;6504;53.766;9.626;2024-03-22T07:22:01;9.80;99.90
12872;DHT22;6504;53.766;9.626;2024-03-22T07:24:28;9.80;99.90
12872;DHT22;6504;53.766;9.626;2024-03-22T07:26:54;9.80;99.90
12872;DHT22;6504;53.766;9.626;2024-03-22T07:29:21;9.80;99.90
12872;DHT22;6504;53.766;9.626;2024-03-22T07:31:47;9.90;99.90
12872;DHT22;6504;53.766;9.626;2024-03-22T07:34:16;9.90;99.90
12872;DHT22;6504;53.766;9.626;2024-03-22T07:36:42;9.90;99.90
12872;DHT22;6504;53.766;9.626;2024-03-22T07:39:09;9.90;99.90
12872;DHT22;6504;53.766;9.626;2024-03-22T07:41:35;9.90;99.90
12872;DHT22;6504;53.766;9.626;2024-03-22T07:44:02;9.90;99.90
12872;DHT22;6504;53.766;9.626;2024-03-22T07:46:30;9.90;99.90
12872;DHT22;6504;53.766;9.626;2024-03-22T07:48:57;9.90;99.90
12872;DHT22;6504;53.766;9.626;2024-03-22T07:51:25;9.90;99.90
12872;DHT22;6504;53.766;9.626;2024-03-22T07:53:52;9.90;99.90
12872;DHT22;6504;53.766;9.626;2024-03-22T07:56:19;9.90;99.90
12872;DHT22;6504;53.766;9.626;2024-03-22T07:58:45;9.90;99.90
12872;DHT22;6504;53.766;9.626;2024-03-22T08:01:12;9.90;99.90
12872;DHT22;6504;53.766;9.626;2024-03-22T08:03:39;10.00;99.90
12872;DHT22;6504;53.766;9.626;2024-03-22T08:06:06;10.00;99.90
12872;DHT22;6504;53.766;9.626;2024-03-22T08:08:33;10.00;99.90
12872;DHT22;6504;53.766;9.626;2024-03-22T08:11:00;10.00;99.90
12872;DHT22;6504;53.766;9.626;2024-03-22T08:13:26;10.00;99.90
12872;DHT22;6504;53.766;9.626;2024-03-22T08:15:53;10.00;99.90
12872;DHT22;6504;53.766;9.626;2024-03-22T08:18:19;10.00;99.90
12872;DHT22;6504;53.766;9.626;2024-03-22T08:20:46;10.00;99.90
12872;DHT22;6504;53.766;9.626;2024-03-22T08:23:12;10.10;99.90
12872;DHT22;6504;53.766;9.626;2024-03-22T08:25:42;10.10;99.90
12872;DHT22;6504;53.766;9.626;2024-03-22T08:28:08;10.10;99.90
12872;DHT22;6504;53.766;9.626;2024-03-22T08:30:37;10.10;99.90
12872;DHT22;6504;53.766;9.626;2024-03-22T08:33:03;10.20;99.90
12872;DHT22;6504;53.766;9.626;2024-03-22T08:35:31;10.20;99.90
12872;DHT22;6504;53.766;9.626;2024-03-22T08:37:57;10.20;99.90
12872;DHT22;6504;53.766;9.626;2024-03-22T08:40:25;10.20;99.90
12872;DHT22;6504;53.766;9.626;2024-03-22T08:42:52;10.20;99.90
12872;DHT22;6504;53.766;9.626;2024-03-22T08:45:20;10.20;99.90
12872;DHT22;6504;53.766;9.626;2024-03-22T08:47:46;10.20;99.90
12872;DHT22;6504;53.766;9.626;2024-03-22T08:50:15;10.20;99.90
12872;DHT22;6504;53.766;9.626;2024-03-22T08:52:41;10.10;99.90
12872;DHT22;6504;53.766;9.626;2024-03-22T08:55:08;10.20;99.90
12872;DHT22;6504;53.766;9.626;2024-03-22T08:57:35;10.10;99.90
12872;DHT22;6504;53.766;9.626;2024-03-22T09:00:05;10.10;99.90
12872;DHT22;6504;53.766;9.626;2024-03-22T09:02:34;10.10;99.90
12872;DHT22;6504;53.766;9.626;2024-03-22T09:05:01;10.10;99.90
12872;DHT22;6504;53.766;9.626;2024-03-22T09:07:27;10.10;99.90
12872;DHT22;6504;53.766;9.626;2024-03-22T09:09:54;10.10;99.90
12872;DHT22;6504;53.766;9.626;2024-03-22T09:12:20;10.10;99.90
12872;DHT22;6504;53.766;9.626;2024-03-22T09:14:47;10.10;99.90
12872;DHT22;6504;53.766;9.626;2024-03-22T09:17:15;10.10;99.90
12872;DHT22;6504;53.766;9.626;2024-03-22T09:19:43;10.10;99.90
12872;DHT22;6504;53.766;9.626;2024-03-22T09:22:11;10.10;99.90
12872;DHT22;6504;53.766;9.626;2024-03-22T09:24:38;10.10;99.90
12872;DHT22;6504;53.766;9.626;2024-03-22T09:27:05;10.10;99.90
12872;DHT22;6504;53.766;9.626;2024-03-22T09:29:34;10.10;99.90
12872;DHT22;6504;53.766;9.626;2024-03-22T09:32:01;10.10;99.90
12872;DHT22;6504;53.766;9.626;2024-03-22T09:34:29;10.10;99.90
12872;DHT22;6504;53.766;9.626;2024-03-22T09:36:57;10.20;99.90
12872;DHT22;6504;53.766;9.626;2024-03-22T09:39:23;10.20;99.90
12872;DHT22;6504;53.766;9.626;2024-03-22T09:41:51;10.20;99.90
12872;DHT22;6504;53.766;9.626;2024-03-22T09:44:19;10.20;99.90
12872;DHT22;6504;53.766;9.626;2024-03-22T09:46:47;10.20;99.90
12872;DHT22;6504;53.766;9.626;2024-03-22T09:49:13;10.20;99.90
12872;DHT22;6504;53.766;9.626;2024-03-22T09:51:41;10.20;99.90
12872;DHT22;6504;53.766;9.626;2024-03-22T09:54:09;10.20;99.90
12872;DHT22;6504;53.766;9.626;2024-03-22T09:56:38;10.20;99.90
12872;DHT22;6504;53.766;9.626;2024-03-22T09:59:05;10.20;99.90
12872;DHT22;6504;53.766;9.626;2024-03-22T10:01:33;10.20;99.90
12872;DHT22;6504;53.766;9.626;2024-03-22T10:04:00;10.20;99.90
12872;DHT22;6504;53.766;9.626;2024-03-22T10:06:28;10.20;99.90
12872;DHT22;6504;53.766;9.626;2024-03-22T10:08:58;10.20;99.90
12872;DHT22;6504;53.766;9.626;2024-03-22T10:11:26;10.20;99.90
12872;DHT22;6504;53.766;9.626;2024-03-22T10:13:53;10.30;99.90
12872;DHT22;6504;53.766;9.626;2024-03-22T10:16:21;10.30;99.90
12872;DHT22;6504;53.766;9.626;2024-03-22T10:18:47;10.30;99.90
12872;DHT22;6504;53.766;9.626;2024-03-22T10:21:17;10.20;99.90
12872;DHT22;6504;53.766;9.626;2024-03-22T10:23:44;10.20;99.90
12872;DHT22;6504;53.766;9.626;2024-03-22T10:26:14;10.20;99.90
12872;DHT22;6504;53.766;9.626;2024-03-22T10:28:44;10.20;99.90
12872;DHT22;6504;53.766;9.626;2024-03-22T10:31:12;10.20;99.90
12872;DHT22;6504;53.766;9.626;2024-03-22T10:33:40;10.20;99.90
12872;DHT22;6504;53.766;9.626;2024-03-22T10:36:11;10.20;99.90
12872;DHT22;6504;53.766;9.626;2024-03-22T10:38:39;10.20;99.90
12872;DHT22;6504;53.766;9.626;2024-03-22T10:41:06;10.20;99.90
12872;DHT22;6504;53.766;9.626;2024-03-22T10:43:36;10.20;99.90
12872;DHT22;6504;53.766;9.626;2024-03-22T10:46:04;10.20;99.90
12872;DHT22;6504;53.766;9.626;2024-03-22T10:48:32;10.20;99.90
12872;DHT22;6504;53.766;9.626;2024-03-22T10:51:00;10.20;99.90
12872;DHT22;6504;53.766;9.626;2024-03-22T10:53:28;10.20;99.90
12872;DHT22;6504;53.766;9.626;2024-03-22T10:55:58;10.20;99.90
12872;DHT22;6504;53.766;9.626;2024-03-22T10:58:26;10.20;99.90
12872;DHT22;6504;53.766;9.626;2024-03-22T11:00:57;10.20;99.90
12872;DHT22;6504;53.766;9.626;2024-03-22T11:03:25;10.20;99.90
12872;DHT22;6504;53.766;9.626;2024-03-22T11:05:55;10.20;99.90
12872;DHT22;6504;53.766;9.626;2024-03-22T11:08:25;10.20;99.90
12872;DHT22;6504;53.766;9.626;2024-03-22T11:10:53;10.20;99.90
12872;DHT22;6504;53.766;9.626;2024-03-22T11:13:19;10.20;99.90
12872;DHT22;6504;53.766;9.626;2024-03-22T11:15:48;10.20;99.90
12872;DHT22;6504;53.766;9.626;2024-03-22T11:18:15;10.20;99.90
12872;DHT22;6504;53.766;9.626;2024-03-22T11:20:43;10.30;99.90
12872;DHT22;6504;53.766;9.626;2024-03-22T11:23:11;10.30;99.90
12872;DHT22;6504;53.766;9.626;2024-03-22T11:25:38;10.30;99.90
12872;DHT22;6504;53.766;9.626;2024-03-22T11:28:06;10.30;99.90
12872;DHT22;6504;53.766;9.626;2024-03-22T11:30:33;10.30;99.90
12872;DHT22;6504;53.766;9.626;2024-03-22T11:33:01;10.30;99.90
12872;DHT22;6504;53.766;9.626;2024-03-22T11:35:29;10.20;99.90
12872;DHT22;6504;53.766;9.626;2024-03-22T11:37:55;10.20;99.90
12872;DHT22;6504;53.766;9.626;2024-03-22T11:40:25;10.10;99.90
12872;DHT22;6504;53.766;9.626;2024-03-22T11:42:54;10.10;99.90
12872;DHT22;6504;53.766;9.626;2024-03-22T11:45:23;10.10;99.90
12872;DHT22;6504;53.766;9.626;2024-03-22T11:47:49;10.00;99.90
12872;DHT22;6504;53.766;9.626;2024-03-22T11:50:17;10.00;99.90
12872;DHT22;6504;53.766;9.626;2024-03-22T11:52:44;9.90;99.90
12872;DHT22;6504;53.766;9.626;2024-03-22T11:55:13;9.90;99.90
12872;DHT22;6504;53.766;9.626;2024-03-22T11:57:39;9.90;99.90
12872;DHT22;6504;53.766;9.626;2024-03-22T12:00:07;9.90;99.90
12872;DHT22;6504;53.766;9.626;2024-03-22T12:02:36;9.90;99.90
12872;DHT22;6504;53.766;9.626;2024-03-22T12:05:04;9.90;99.90
12872;DHT22;6504;53.766;9.626;2024-03-22T12:07:31;9.90;99.90
12872;DHT22;6504;53.766;9.626;2024-03-22T12:10:00;10.00;99.90
12872;DHT22;6504;53.766;9.626;2024-03-22T12:12:26;10.00;99.90
12872;DHT22;6504;53.766;9.626;2024-03-22T12:14:54;10.00;99.90
12872;DHT22;6504;53.766;9.626;2024-03-22T12:17:20;10.00;99.90
12872;DHT22;6504;53.766;9.626;2024-03-22T12:19:47;10.00;99.90
12872;DHT22;6504;53.766;9.626;2024-03-22T12:22:14;10.00;99.90
12872;DHT22;6504;53.766;9.626;2024-03-22T12:24:43;10.00;99.90
12872;DHT22;6504;53.766;9.626;2024-03-22T12:27:10;10.00;99.90
12872;DHT22;6504;53.766;9.626;2024-03-22T12:29:37;10.00;99.90
12872;DHT22;6504;53.766;9.626;2024-03-22T12:32:04;10.00;99.90
12872;DHT22;6504;53.766;9.626;2024-03-22T12:34:32;10.10;99.90
12872;DHT22;6504;53.766;9.626;2024-03-22T12:36:59;10.10;99.90
12872;DHT22;6504;53.766;9.626;2024-03-22T12:39:26;10.10;99.90
12872;DHT22;6504;53.766;9.626;2024-03-22T12:41:52;10.10;99.90
12872;DHT22;6504;53.766;9.626;2024-03-22T12:44:21;10.10;99.90
12872;DHT22;6504;53.766;9.626;2024-03-22T12:46:48;10.10;99.90
12872;DHT22;6504;53.766;9.626;2024-03-22T12:49:17;10.00;99.90
12872;DHT22;6504;53.766;9.626;2024-03-22T12:51:43;10.00;99.90
12872;DHT22;6504;53.766;9.626;2024-03-22T12:54:10;10.00;99.90
12872;DHT22;6504;53.766;9.626;2024-03-22T12:56:37;10.00;99.90
12872;DHT22;6504;53.766;9.626;2024-03-22T12:59:05;10.00;99.90
12872;DHT22;6504;53.766;9.626;2024-03-22T13:01:32;10.00;99.90
12872;DHT22;6504;53.766;9.626;2024-03-22T13:03:59;10.00;99.90
12872;DHT22;6504;53.766;9.626;2024-03-22T13:06:25;10.00;99.90
12872;DHT22;6504;53.766;9.626;2024-03-22T13:08:53;9.90;99.90
12872;DHT22;6504;53.766;9.626;2024-03-22T13:11:19;9.90;99.90
12872;DHT22;6504;53.766;9.626;2024-03-22T13:13:46;9.90;99.90
12872;DHT22;6504;53.766;9.626;2024-03-22T13:16:12;9.90;99.90
12872;DHT22;6504;53.766;9.626;2024-03-22T13:18:41;9.90;99.90
12872;DHT22;6504;53.766;9.626;2024-03-22T13:21:08;9.90;99.90
12872;DHT22;6504;53.766;9.626;2024-03-22T13:23:35;9.90;99.90
12872;DHT22;6504;53.766;9.626;2024-03-22T13:26:03;10.00;99.90
12872;DHT22;6504;53.766;9.626;2024-03-22T13:28:31;9.90;99.90
12872;DHT22;6504;53.766;9.626;2024-03-22T13:31:01;9.90;99.90
12872;DHT22;6504;53.766;9.626;2024-03-22T13:33:28;9.90;99.90
12872;DHT22;6504;53.766;9.626;2024-03-22T13:35:56;9.90;99.90
12872;DHT22;6504;53.766;9.626;2024-03-22T13:38:23;9.90;99.90
12872;DHT22;6504;53.766;9.626;2024-03-22T13:40:55;9.80;99.90
12872;DHT22;6504;53.766;9.626;2024-03-22T13:43:23;9.80;99.90
12872;DHT22;6504;53.766;9.626;2024-03-22T13:45:51;9.70;99.90
12872;DHT22;6504;53.766;9.626;2024-03-22T13:48:22;9.60;99.90
12872;DHT22;6504;53.766;9.626;2024-03-22T13:50:50;9.60;99.90
12872;DHT22;6504;53.766;9.626;2024-03-22T13:53:19;9.60;99.90
12872;DHT22;6504;53.766;9.626;2024-03-22T13:55:47;9.60;99.90
12872;DHT22;6504;53.766;9.626;2024-03-22T13:58:15;9.60;99.90
12872;DHT22;6504;53.766;9.626;2024-03-22T14:00:41;9.50;99.90
12872;DHT22;6504;53.766;9.626;2024-03-22T14:03:10;9.60;99.90
12872;DHT22;6504;53.766;9.626;2024-03-22T14:05:36;9.60;99.90
12872;DHT22;6504;53.766;9.626;2024-03-22T14:08:04;9.60;99.90
12872;DHT22;6504;53.766;9.626;2024-03-22T14:10:31;9.60;99.90
12872;DHT22;6504;53.766;9.626;2024-03-22T14:12:58;9.60;99.90
12872;DHT22;6504;53.766;9.626;2024-03-22T14:15:25;9.60;99.90
12872;DHT22;6504;53.766;9.626;2024-03-22T14:17:55;9.70;99.90
12872;DHT22;6504;53.766;9.626;2024-03-22T14:20:21;9.70;99.90
12872;DHT22;6504;53.766;9.626;2024-03-22T14:22:48;9.70;99.90
12872;DHT22;6504;53.766;9.626;2024-03-22T14:25:15;9.70;99.90
12872;DHT22;6504;53.766;9.626;2024-03-22T14:27:44;9.70;99.90
12872;DHT22;6504;53.766;9.626;2024-03-22T14:30:12;9.70;99.90
12872;DHT22;6504;53.766;9.626;2024-03-22T14:32:42;9.70;99.90
12872;DHT22;6504;53.766;9.626;2024-03-22T14:35:08;9.70;99.90
12872;DHT22;6504;53.766;9.626;2024-03-22T14:37:36;9.70;99.90
12872;DHT22;6504;53.766;9.626;2024-03-22T14:40:02;9.60;99.90
12872;DHT22;6504;53.766;9.626;2024-03-22T14:42:31;9.70;99.90
12872;DHT22;6504;53.766;9.626;2024-03-22T14:44:58;9.70;99.90
12872;DHT22;6504;53.766;9.626;2024-03-22T14:47:25;9.70;99.90
12872;DHT22;6504;53.766;9.626;2024-03-22T14:49:51;9.70;99.90
12872;DHT22;6504;53.766;9.626;2024-03-22T14:52:18;9.70;99.90
12872;DHT22;6504;53.766;9.626;2024-03-22T14:54:46;9.60;99.90
12872;DHT22;6504;53.766;9.626;2024-03-22T14:57:13;9.70;99.90
12872;DHT22;6504;53.766;9.626;2024-03-22T14:59:40;9.60;99.90
12872;DHT22;6504;53.766;9.626;2024-03-22T15:02:08;9.60;99.90
12872;DHT22;6504;53.766;9.626;2024-03-22T15:04:34;9.60;99.90
12872;DHT22;6504;53.766;9.626;2024-03-22T15:07:01;9.60;99.90
12872;DHT22;6504;53.766;9.626;2024-03-22T15:09:28;9.60;99.90
12872;DHT22;6504;53.766;9.626;2024-03-22T15:11:55;9.60;99.90
12872;DHT22;6504;53.766;9.626;2024-03-22T15:14:24;9.60;99.90
12872;DHT22;6504;53.766;9.626;2024-03-22T15:16:53;9.60;99.90
12872;DHT22;6504;53.766;9.626;2024-03-22T15:19:21;9.60;99.90
12872;DHT22;6504;53.766;9.626;2024-03-22T15:21:48;9.60;99.90
12872;DHT22;6504;53.766;9.626;2024-03-22T15:24:15;9.60;99.90
12872;DHT22;6504;53.766;9.626;2024-03-22T15:26:42;9.60;99.90
12872;DHT22;6504;53.766;9.626;2024-03-22T15:29:08;9.60;99.90
12872;DHT22;6504;53.766;9.626;2024-03-22T15:31:35;9.60;99.90
12872;DHT22;6504;53.766;9.626;2024-03-22T15:34:01;9.60;99.90
12872;DHT22;6504;53.766;9.626;2024-03-22T15:36:29;9.60;99.90
12872;DHT22;6504;53.766;9.626;2024-03-22T15:38:55;9.60;99.90
12872;DHT22;6504;53.766;9.626;2024-03-22T15:41:22;9.50;99.90
12872;DHT22;6504;53.766;9.626;2024-03-22T15:43:48;9.50;99.90
12872;DHT22;6504;53.766;9.626;2024-03-22T15:46:15;9.50;99.90
12872;DHT22;6504;53.766;9.626;2024-03-22T15:48:42;9.50;99.90
12872;DHT22;6504;53.766;9.626;2024-03-22T15:51:10;9.50;99.90
12872;DHT22;6504;53.766;9.626;2024-03-22T15:53:37;9.40;99.90
12872;DHT22;6504;53.766;9.626;2024-03-22T15:56:05;9.40;99.90